Airfield :
LOGIN :

Register | Disclaimer

   EN    FR    IT 

 










Legend :    VFR   Marginal VFR   IFR   Intensive IFR   Very Intensive IFR
Visi :
Ceiling :
>= 8 km
>= 3000ft
5 to 8 km
1000 to 3000 ft
1500m to 5 km
500 to 1000 ft
800 to 1500m
200 to 500 ft
< 800m
< 200 ft
Symbols :   Thunderstorms  Fog  Heavy snow  Heavy precipitations  Wind > 20 kt
SIGMETs :     Misc.  Thunderstorms  Icing  Turbulence  Mountain Waves  Volcanic Ashes







- Airport Elevation : 63 ft
- IATA code : BZM


EHWO - Woensdrecht Airbase

CURRENT METAR :
  • 250646Z AUTO VRB01KT 5000 BR FEW003 17/16 Q1017 WHT VRB03KT 4000 BR FEW005 BECMG 6000 NSC

EXPIRED METARs :
  • 250642Z AUTO VRB01KT 4600 BR FEW003 17/16 Q1017 GRN VRB03KT 4000 BR FEW005 BECMG 6000 NSC
  • 250636Z AUTO VRB01KT 4300 BR FEW002 SCT003 17/16 Q1017 YLO VRB03KT 4000 BR FEW005 BECMG 6000 NSC
  • 250625Z AUTO VRB02KT 2000 R07/2000D BR FEW001 16/16 Q1017 YLO VRB03KT 2000 BR FEW003 BECMG 5000 NSC
  • 250609Z AUTO 00000KT 2400 R07/2400U BR BKN000 16/16 Q1017 RED VRB03KT 2000 BR FEW003 BECMG 5000 NSC
  • 250555Z AUTO VRB01KT 1500 R07/1200U BR OVC000 15/15 Q1017 RED VRB03KT 0200 FG NSC
  • 250537Z AUTO VRB01KT 0200 FG VV000 14/14 Q1017 RED VRB03KT 0200 FG NSC
  • 250525Z AUTO VRB02KT 0250 FG VV000 14/14 Q1017 RED
  • 250455Z AUTO VRB01KT 0200 FG VV000 14/14 Q1017 RED
  • 250425Z AUTO VRB02KT 0200 FG VV000 14/14 Q1017 RED
  • 250355Z AUTO VRB02KT 0250 FG VV000 14/14 Q1016 RED

TAF TAF EHWO
Valid from the 25 at 05:00 until the 25 at 17:00 UTC


250426Z 2505/2517 10003KT 0300 FG NSC
BECMG 2505/2507 9000 NSW FEW005
PROB30
TEMPO 2514/2517 VRB15G25KT 2000 +SHRA TSRAGR SCT012 BKN035CB
No reported NOTAMs for that airfield.



MET'MAP, your aeronautical weather chart ! - Copyright ORBIFLY December 2007 - Disclaimer

ORBIFLY MET'MAP TEAM :

Programming & Development : Alexandra Zaïnal
Concept & Development : Baudouin d'Aumeries
Co-Development & Prog : Marc-Olivier Méhu
Technical & hardware support : Manuel Goepfert

Contact : metmap@orbifly.com




SOURCES & CREDITS :

   NOAA